sensor_id;sensor_type;location;lat;lon;timestamp;P1;durP1;ratioP1;P2;durP2;ratioP2
66012;SDS011;52783;50.502;8.190;2024-02-26T00:02:16;2.45;;;1.75;;
66012;SDS011;52783;50.502;8.190;2024-02-26T00:04:43;1.77;;;1.67;;
66012;SDS011;52783;50.502;8.190;2024-02-26T00:07:08;2.47;;;1.60;;
66012;SDS011;52783;50.502;8.190;2024-02-26T00:09:34;4.35;;;2.10;;
66012;SDS011;52783;50.502;8.190;2024-02-26T00:12:02;1.23;;;1.20;;
66012;SDS011;52783;50.502;8.190;2024-02-26T00:14:29;1.60;;;1.50;;
66012;SDS011;52783;50.502;8.190;2024-02-26T00:16:55;1.40;;;1.30;;
66012;SDS011;52783;50.502;8.190;2024-02-26T00:19:20;2.42;;;1.77;;
66012;SDS011;52783;50.502;8.190;2024-02-26T00:21:46;2.15;;;1.50;;
66012;SDS011;52783;50.502;8.190;2024-02-26T00:24:11;2.88;;;1.88;;
66012;SDS011;52783;50.502;8.190;2024-02-26T00:26:37;3.20;;;1.85;;
66012;SDS011;52783;50.502;8.190;2024-02-26T00:29:03;2.58;;;1.80;;
66012;SDS011;52783;50.502;8.190;2024-02-26T00:31:28;2.72;;;1.73;;
66012;SDS011;52783;50.502;8.190;2024-02-26T00:33:54;2.90;;;1.70;;
66012;SDS011;52783;50.502;8.190;2024-02-26T00:36:20;2.03;;;1.70;;
66012;SDS011;52783;50.502;8.190;2024-02-26T00:38:45;1.63;;;1.52;;
66012;SDS011;52783;50.502;8.190;2024-02-26T00:41:15;2.08;;;1.80;;
66012;SDS011;52783;50.502;8.190;2024-02-26T00:43:41;2.22;;;1.50;;
66012;SDS011;52783;50.502;8.190;2024-02-26T00:46:07;1.63;;;1.52;;
66012;SDS011;52783;50.502;8.190;2024-02-26T00:48:33;1.35;;;1.25;;
66012;SDS011;52783;50.502;8.190;2024-02-26T00:50:58;2.85;;;1.88;;
66012;SDS011;52783;50.502;8.190;2024-02-26T00:53:24;3.22;;;2.05;;
66012;SDS011;52783;50.502;8.190;2024-02-26T00:55:50;1.65;;;1.55;;
66012;SDS011;52783;50.502;8.190;2024-02-26T00:58:16;2.30;;;1.65;;
66012;SDS011;52783;50.502;8.190;2024-02-26T01:00:41;1.70;;;1.60;;
66012;SDS011;52783;50.502;8.190;2024-02-26T01:03:07;1.80;;;1.30;;
66012;SDS011;52783;50.502;8.190;2024-02-26T01:05:32;2.58;;;1.88;;
66012;SDS011;52783;50.502;8.190;2024-02-26T01:07:58;2.13;;;1.77;;
66012;SDS011;52783;50.502;8.190;2024-02-26T01:10:24;1.65;;;1.45;;
66012;SDS011;52783;50.502;8.190;2024-02-26T01:12:49;1.63;;;1.52;;
66012;SDS011;52783;50.502;8.190;2024-02-26T01:15:15;1.60;;;1.50;;
66012;SDS011;52783;50.502;8.190;2024-02-26T01:17:40;1.70;;;1.60;;
66012;SDS011;52783;50.502;8.190;2024-02-26T01:20:06;2.50;;;1.80;;
66012;SDS011;52783;50.502;8.190;2024-02-26T01:22:33;1.45;;;1.35;;
66012;SDS011;52783;50.502;8.190;2024-02-26T01:24:59;1.58;;;1.48;;
66012;SDS011;52783;50.502;8.190;2024-02-26T01:27:25;2.08;;;1.77;;
66012;SDS011;52783;50.502;8.190;2024-02-26T01:29:52;2.70;;;1.70;;
66012;SDS011;52783;50.502;8.190;2024-02-26T01:32:17;1.95;;;1.80;;
66012;SDS011;52783;50.502;8.190;2024-02-26T01:34:44;2.08;;;1.95;;
66012;SDS011;52783;50.502;8.190;2024-02-26T01:37:10;1.60;;;1.50;;
66012;SDS011;52783;50.502;8.190;2024-02-26T01:39:35;3.42;;;1.60;;
66012;SDS011;52783;50.502;8.190;2024-02-26T01:42:01;1.98;;;1.65;;
66012;SDS011;52783;50.502;8.190;2024-02-26T01:44:26;2.80;;;1.80;;
66012;SDS011;52783;50.502;8.190;2024-02-26T01:46:52;2.75;;;1.80;;
66012;SDS011;52783;50.502;8.190;2024-02-26T01:49:18;1.95;;;1.83;;
66012;SDS011;52783;50.502;8.190;2024-02-26T01:51:44;3.40;;;1.92;;
66012;SDS011;52783;50.502;8.190;2024-02-26T01:54:11;2.70;;;1.90;;
66012;SDS011;52783;50.502;8.190;2024-02-26T01:56:37;2.03;;;1.85;;
66012;SDS011;52783;50.502;8.190;2024-02-26T01:59:03;4.38;;;1.90;;
66012;SDS011;52783;50.502;8.190;2024-02-26T02:01:31;2.28;;;1.92;;
66012;SDS011;52783;50.502;8.190;2024-02-26T02:03:57;1.60;;;1.50;;
66012;SDS011;52783;50.502;8.190;2024-02-26T02:06:24;1.90;;;1.73;;
66012;SDS011;52783;50.502;8.190;2024-02-26T02:08:52;2.50;;;1.90;;
66012;SDS011;52783;50.502;8.190;2024-02-26T02:11:17;3.65;;;2.13;;
66012;SDS011;52783;50.502;8.190;2024-02-26T02:13:43;3.33;;;1.95;;
66012;SDS011;52783;50.502;8.190;2024-02-26T02:16:09;13.75;;;2.10;;
66012;SDS011;52783;50.502;8.190;2024-02-26T02:18:35;1.52;;;1.38;;
66012;SDS011;52783;50.502;8.190;2024-02-26T02:21:00;2.22;;;1.90;;
66012;SDS011;52783;50.502;8.190;2024-02-26T02:23:26;2.38;;;2.05;;
66012;SDS011;52783;50.502;8.190;2024-02-26T02:25:52;2.55;;;1.80;;
66012;SDS011;52783;50.502;8.190;2024-02-26T02:28:18;2.85;;;2.28;;
66012;SDS011;52783;50.502;8.190;2024-02-26T02:30:44;2.45;;;2.05;;
66012;SDS011;52783;50.502;8.190;2024-02-26T02:33:10;3.15;;;1.80;;
66012;SDS011;52783;50.502;8.190;2024-02-26T02:35:37;3.65;;;2.00;;
66012;SDS011;52783;50.502;8.190;2024-02-26T02:38:02;1.60;;;1.50;;
66012;SDS011;52783;50.502;8.190;2024-02-26T02:40:28;2.13;;;1.88;;
66012;SDS011;52783;50.502;8.190;2024-02-26T02:42:54;3.20;;;1.88;;
66012;SDS011;52783;50.502;8.190;2024-02-26T02:45:19;2.08;;;1.80;;
66012;SDS011;52783;50.502;8.190;2024-02-26T02:47:45;2.72;;;2.08;;
66012;SDS011;52783;50.502;8.190;2024-02-26T02:50:10;3.88;;;2.10;;
66012;SDS011;52783;50.502;8.190;2024-02-26T02:52:36;4.05;;;1.90;;
66012;SDS011;52783;50.502;8.190;2024-02-26T02:55:01;3.53;;;2.10;;
66012;SDS011;52783;50.502;8.190;2024-02-26T02:57:27;2.53;;;2.10;;
66012;SDS011;52783;50.502;8.190;2024-02-26T02:59:53;2.10;;;2.00;;
66012;SDS011;52783;50.502;8.190;2024-02-26T03:02:19;2.25;;;1.73;;
66012;SDS011;52783;50.502;8.190;2024-02-26T03:04:44;2.70;;;1.92;;
66012;SDS011;52783;50.502;8.190;2024-02-26T03:07:10;3.33;;;2.22;;
66012;SDS011;52783;50.502;8.190;2024-02-26T03:09:35;2.20;;;2.00;;
66012;SDS011;52783;50.502;8.190;2024-02-26T03:12:01;1.80;;;1.70;;
66012;SDS011;52783;50.502;8.190;2024-02-26T03:14:26;5.18;;;2.17;;
66012;SDS011;52783;50.502;8.190;2024-02-26T03:16:54;4.47;;;2.22;;
66012;SDS011;52783;50.502;8.190;2024-02-26T03:19:20;4.35;;;2.13;;
66012;SDS011;52783;50.502;8.190;2024-02-26T03:21:46;1.95;;;1.80;;
66012;SDS011;52783;50.502;8.190;2024-02-26T03:24:11;2.33;;;2.13;;
66012;SDS011;52783;50.502;8.190;2024-02-26T03:26:37;2.60;;;1.98;;
66012;SDS011;52783;50.502;8.190;2024-02-26T03:29:03;3.22;;;2.10;;
66012;SDS011;52783;50.502;8.190;2024-02-26T03:31:29;2.20;;;2.00;;
66012;SDS011;52783;50.502;8.190;2024-02-26T03:33:54;3.45;;;2.20;;
66012;SDS011;52783;50.502;8.190;2024-02-26T03:36:20;4.85;;;2.30;;
66012;SDS011;52783;50.502;8.190;2024-02-26T03:38:46;2.30;;;1.95;;
66012;SDS011;52783;50.502;8.190;2024-02-26T03:41:12;1.60;;;1.50;;
66012;SDS011;52783;50.502;8.190;2024-02-26T03:43:38;2.80;;;2.10;;
66012;SDS011;52783;50.502;8.190;2024-02-26T03:46:04;4.97;;;2.00;;
66012;SDS011;52783;50.502;8.190;2024-02-26T03:48:33;2.15;;;1.48;;
66012;SDS011;52783;50.502;8.190;2024-02-26T03:50:59;2.67;;;2.22;;
66012;SDS011;52783;50.502;8.190;2024-02-26T03:53:25;2.80;;;2.13;;
66012;SDS011;52783;50.502;8.190;2024-02-26T03:55:50;8.43;;;2.53;;
66012;SDS011;52783;50.502;8.190;2024-02-26T03:58:17;2.67;;;2.15;;
66012;SDS011;52783;50.502;8.190;2024-02-26T04:00:43;3.03;;;2.40;;
66012;SDS011;52783;50.502;8.190;2024-02-26T04:03:09;3.47;;;2.42;;
66012;SDS011;52783;50.502;8.190;2024-02-26T04:05:34;2.92;;;2.20;;
66012;SDS011;52783;50.502;8.190;2024-02-26T04:08:00;5.13;;;2.85;;
66012;SDS011;52783;50.502;8.190;2024-02-26T04:10:25;3.85;;;2.30;;
66012;SDS011;52783;50.502;8.190;2024-02-26T04:12:51;3.92;;;2.33;;
66012;SDS011;52783;50.502;8.190;2024-02-26T04:15:16;5.35;;;2.60;;
66012;SDS011;52783;50.502;8.190;2024-02-26T04:17:42;4.95;;;2.47;;
66012;SDS011;52783;50.502;8.190;2024-02-26T04:20:12;3.60;;;2.38;;
66012;SDS011;52783;50.502;8.190;2024-02-26T04:22:39;3.28;;;2.45;;
66012;SDS011;52783;50.502;8.190;2024-02-26T04:25:04;3.97;;;2.13;;
66012;SDS011;52783;50.502;8.190;2024-02-26T04:27:30;4.00;;;2.40;;
66012;SDS011;52783;50.502;8.190;2024-02-26T04:29:56;5.68;;;2.35;;
66012;SDS011;52783;50.502;8.190;2024-02-26T04:32:21;2.65;;;2.10;;
66012;SDS011;52783;50.502;8.190;2024-02-26T04:34:47;2.45;;;2.25;;
66012;SDS011;52783;50.502;8.190;2024-02-26T04:37:13;2.13;;;1.92;;
66012;SDS011;52783;50.502;8.190;2024-02-26T04:39:38;3.45;;;2.00;;
66012;SDS011;52783;50.502;8.190;2024-02-26T04:42:04;2.35;;;2.15;;
66012;SDS011;52783;50.502;8.190;2024-02-26T04:44:29;3.17;;;2.40;;
66012;SDS011;52783;50.502;8.190;2024-02-26T04:46:55;4.57;;;2.47;;
66012;SDS011;52783;50.502;8.190;2024-02-26T04:49:21;2.65;;;2.15;;
66012;SDS011;52783;50.502;8.190;2024-02-26T04:51:46;3.78;;;2.05;;
66012;SDS011;52783;50.502;8.190;2024-02-26T04:54:13;1.92;;;1.80;;
66012;SDS011;52783;50.502;8.190;2024-02-26T04:56:38;4.35;;;2.22;;
66012;SDS011;52783;50.502;8.190;2024-02-26T04:59:04;3.33;;;2.25;;
66012;SDS011;52783;50.502;8.190;2024-02-26T05:01:29;3.10;;;2.08;;
66012;SDS011;52783;50.502;8.190;2024-02-26T05:03:55;3.47;;;2.55;;
66012;SDS011;52783;50.502;8.190;2024-02-26T05:06:20;4.50;;;2.38;;
66012;SDS011;52783;50.502;8.190;2024-02-26T05:08:46;3.35;;;2.30;;
66012;SDS011;52783;50.502;8.190;2024-02-26T05:11:11;3.15;;;2.10;;
66012;SDS011;52783;50.502;8.190;2024-02-26T05:13:37;2.83;;;2.40;;
66012;SDS011;52783;50.502;8.190;2024-02-26T05:16:02;2.63;;;2.30;;
66012;SDS011;52783;50.502;8.190;2024-02-26T05:18:28;5.35;;;2.55;;
66012;SDS011;52783;50.502;8.190;2024-02-26T05:20:54;6.47;;;2.10;;
66012;SDS011;52783;50.502;8.190;2024-02-26T05:23:19;4.35;;;2.13;;
66012;SDS011;52783;50.502;8.190;2024-02-26T05:25:45;3.80;;;2.20;;
66012;SDS011;52783;50.502;8.190;2024-02-26T05:28:12;2.60;;;2.35;;
66012;SDS011;52783;50.502;8.190;2024-02-26T05:30:37;5.47;;;2.40;;
66012;SDS011;52783;50.502;8.190;2024-02-26T05:33:05;3.10;;;2.08;;
66012;SDS011;52783;50.502;8.190;2024-02-26T05:35:30;3.83;;;2.20;;
66012;SDS011;52783;50.502;8.190;2024-02-26T05:37:56;2.15;;;1.95;;
66012;SDS011;52783;50.502;8.190;2024-02-26T05:40:21;2.85;;;2.45;;
66012;SDS011;52783;50.502;8.190;2024-02-26T05:42:47;3.05;;;2.20;;
66012;SDS011;52783;50.502;8.190;2024-02-26T05:45:14;2.42;;;2.20;;
66012;SDS011;52783;50.502;8.190;2024-02-26T05:47:39;4.88;;;2.30;;
66012;SDS011;52783;50.502;8.190;2024-02-26T05:50:08;2.65;;;2.22;;
66012;SDS011;52783;50.502;8.190;2024-02-26T05:52:35;2.92;;;2.33;;
66012;SDS011;52783;50.502;8.190;2024-02-26T05:55:05;2.80;;;1.95;;
66012;SDS011;52783;50.502;8.190;2024-02-26T05:57:31;2.60;;;2.40;;
66012;SDS011;52783;50.502;8.190;2024-02-26T05:59:57;7.45;;;2.45;;
66012;SDS011;52783;50.502;8.190;2024-02-26T06:02:25;2.90;;;2.17;;
66012;SDS011;52783;50.502;8.190;2024-02-26T06:04:51;3.10;;;2.47;;
66012;SDS011;52783;50.502;8.190;2024-02-26T06:07:16;5.30;;;2.20;;
66012;SDS011;52783;50.502;8.190;2024-02-26T06:09:42;3.80;;;2.35;;
66012;SDS011;52783;50.502;8.190;2024-02-26T06:12:08;3.13;;;2.38;;
66012;SDS011;52783;50.502;8.190;2024-02-26T06:14:33;2.83;;;2.30;;
66012;SDS011;52783;50.502;8.190;2024-02-26T06:16:59;2.67;;;2.30;;
66012;SDS011;52783;50.502;8.190;2024-02-26T06:19:24;5.90;;;2.60;;
66012;SDS011;52783;50.502;8.190;2024-02-26T06:21:50;2.80;;;2.10;;
66012;SDS011;52783;50.502;8.190;2024-02-26T06:24:16;2.72;;;2.20;;
66012;SDS011;52783;50.502;8.190;2024-02-26T06:26:41;2.85;;;2.30;;
66012;SDS011;52783;50.502;8.190;2024-02-26T06:29:07;2.03;;;1.92;;
66012;SDS011;52783;50.502;8.190;2024-02-26T06:31:32;3.35;;;2.40;;
66012;SDS011;52783;50.502;8.190;2024-02-26T06:33:58;2.67;;;2.08;;
66012;SDS011;52783;50.502;8.190;2024-02-26T06:36:23;7.55;;;2.78;;
66012;SDS011;52783;50.502;8.190;2024-02-26T06:38:49;2.30;;;2.10;;
66012;SDS011;52783;50.502;8.190;2024-02-26T06:41:14;4.40;;;2.47;;
66012;SDS011;52783;50.502;8.190;2024-02-26T06:43:40;4.30;;;2.35;;
66012;SDS011;52783;50.502;8.190;2024-02-26T06:46:06;2.67;;;2.10;;
66012;SDS011;52783;50.502;8.190;2024-02-26T06:48:32;2.25;;;1.95;;
66012;SDS011;52783;50.502;8.190;2024-02-26T06:50:57;2.95;;;2.15;;
66012;SDS011;52783;50.502;8.190;2024-02-26T06:53:23;2.35;;;2.15;;
66012;SDS011;52783;50.502;8.190;2024-02-26T06:55:48;2.65;;;2.22;;
66012;SDS011;52783;50.502;8.190;2024-02-26T06:58:15;3.65;;;2.63;;
66012;SDS011;52783;50.502;8.190;2024-02-26T07:00:40;3.03;;;2.45;;
66012;SDS011;52783;50.502;8.190;2024-02-26T07:03:06;2.88;;;2.45;;
66012;SDS011;52783;50.502;8.190;2024-02-26T07:05:31;4.82;;;2.80;;
66012;SDS011;52783;50.502;8.190;2024-02-26T07:07:57;3.85;;;2.65;;
66012;SDS011;52783;50.502;8.190;2024-02-26T07:10:23;3.95;;;2.63;;
66012;SDS011;52783;50.502;8.190;2024-02-26T07:12:48;5.05;;;2.47;;
66012;SDS011;52783;50.502;8.190;2024-02-26T07:15:14;3.83;;;2.42;;
66012;SDS011;52783;50.502;8.190;2024-02-26T07:17:39;5.15;;;2.75;;
66012;SDS011;52783;50.502;8.190;2024-02-26T07:20:07;4.07;;;2.80;;
66012;SDS011;52783;50.502;8.190;2024-02-26T07:22:33;2.60;;;2.28;;
66012;SDS011;52783;50.502;8.190;2024-02-26T07:24:59;3.00;;;2.60;;
66012;SDS011;52783;50.502;8.190;2024-02-26T07:27:24;2.60;;;2.40;;
66012;SDS011;52783;50.502;8.190;2024-02-26T07:29:50;3.63;;;2.53;;
66012;SDS011;52783;50.502;8.190;2024-02-26T07:32:16;5.57;;;2.50;;
66012;SDS011;52783;50.502;8.190;2024-02-26T07:34:41;7.55;;;2.70;;
66012;SDS011;52783;50.502;8.190;2024-02-26T07:37:09;3.90;;;2.38;;
66012;SDS011;52783;50.502;8.190;2024-02-26T07:39:35;3.03;;;2.20;;
66012;SDS011;52783;50.502;8.190;2024-02-26T07:42:01;4.18;;;2.60;;
66012;SDS011;52783;50.502;8.190;2024-02-26T07:44:27;4.00;;;2.70;;
66012;SDS011;52783;50.502;8.190;2024-02-26T07:46:53;3.15;;;2.63;;
66012;SDS011;52783;50.502;8.190;2024-02-26T07:49:18;2.60;;;2.40;;
66012;SDS011;52783;50.502;8.190;2024-02-26T07:51:44;2.97;;;2.03;;
66012;SDS011;52783;50.502;8.190;2024-02-26T07:54:09;2.38;;;2.17;;
66012;SDS011;52783;50.502;8.190;2024-02-26T07:56:35;3.92;;;2.90;;
66012;SDS011;52783;50.502;8.190;2024-02-26T07:59:00;5.13;;;2.80;;
66012;SDS011;52783;50.502;8.190;2024-02-26T08:01:26;3.13;;;2.70;;
66012;SDS011;52783;50.502;8.190;2024-02-26T08:03:52;3.78;;;2.20;;
66012;SDS011;52783;50.502;8.190;2024-02-26T08:06:18;7.13;;;2.63;;
66012;SDS011;52783;50.502;8.190;2024-02-26T08:08:44;3.15;;;2.60;;
66012;SDS011;52783;50.502;8.190;2024-02-26T08:11:09;3.83;;;2.35;;
66012;SDS011;52783;50.502;8.190;2024-02-26T08:13:35;3.13;;;2.50;;
66012;SDS011;52783;50.502;8.190;2024-02-26T08:16:01;4.00;;;2.17;;
66012;SDS011;52783;50.502;8.190;2024-02-26T08:18:26;4.70;;;2.60;;
66012;SDS011;52783;50.502;8.190;2024-02-26T08:20:52;2.95;;;2.45;;
66012;SDS011;52783;50.502;8.190;2024-02-26T08:23:17;4.93;;;2.33;;
66012;SDS011;52783;50.502;8.190;2024-02-26T08:25:43;3.40;;;2.35;;
66012;SDS011;52783;50.502;8.190;2024-02-26T08:28:09;3.03;;;2.25;;
66012;SDS011;52783;50.502;8.190;2024-02-26T08:30:38;4.57;;;2.30;;
66012;SDS011;52783;50.502;8.190;2024-02-26T08:33:03;3.90;;;2.63;;
66012;SDS011;52783;50.502;8.190;2024-02-26T08:35:29;4.05;;;2.53;;
66012;SDS011;52783;50.502;8.190;2024-02-26T08:37:54;3.13;;;2.58;;
66012;SDS011;52783;50.502;8.190;2024-02-26T08:40:20;4.82;;;2.85;;
66012;SDS011;52783;50.502;8.190;2024-02-26T08:42:46;3.03;;;2.42;;
66012;SDS011;52783;50.502;8.190;2024-02-26T08:45:11;8.60;;;3.53;;
66012;SDS011;52783;50.502;8.190;2024-02-26T08:47:37;4.63;;;2.90;;
66012;SDS011;52783;50.502;8.190;2024-02-26T08:50:03;4.13;;;2.95;;
66012;SDS011;52783;50.502;8.190;2024-02-26T08:52:30;4.82;;;3.05;;
66012;SDS011;52783;50.502;8.190;2024-02-26T08:54:55;6.68;;;2.80;;
66012;SDS011;52783;50.502;8.190;2024-02-26T08:57:22;5.00;;;2.92;;
66012;SDS011;52783;50.502;8.190;2024-02-26T08:59:47;9.73;;;2.88;;
66012;SDS011;52783;50.502;8.190;2024-02-26T09:02:13;4.70;;;3.17;;
66012;SDS011;52783;50.502;8.190;2024-02-26T09:04:38;3.28;;;2.80;;
66012;SDS011;52783;50.502;8.190;2024-02-26T09:07:04;2.90;;;2.60;;
66012;SDS011;52783;50.502;8.190;2024-02-26T09:09:29;5.93;;;3.08;;
66012;SDS011;52783;50.502;8.190;2024-02-26T09:11:55;10.25;;;2.78;;
66012;SDS011;52783;50.502;8.190;2024-02-26T09:14:21;5.03;;;2.50;;
66012;SDS011;52783;50.502;8.190;2024-02-26T09:16:46;4.75;;;3.03;;
66012;SDS011;52783;50.502;8.190;2024-02-26T09:19:15;4.00;;;2.75;;
66012;SDS011;52783;50.502;8.190;2024-02-26T09:21:43;5.88;;;3.30;;
66012;SDS011;52783;50.502;8.190;2024-02-26T09:24:10;4.72;;;2.85;;
66012;SDS011;52783;50.502;8.190;2024-02-26T09:26:36;5.93;;;3.40;;
66012;SDS011;52783;50.502;8.190;2024-02-26T09:29:02;3.80;;;3.05;;
66012;SDS011;52783;50.502;8.190;2024-02-26T09:31:29;4.80;;;3.15;;
66012;SDS011;52783;50.502;8.190;2024-02-26T09:33:54;6.00;;;3.38;;
66012;SDS011;52783;50.502;8.190;2024-02-26T09:36:20;4.82;;;3.17;;
66012;SDS011;52783;50.502;8.190;2024-02-26T09:38:46;3.20;;;2.53;;
66012;SDS011;52783;50.502;8.190;2024-02-26T09:41:15;4.28;;;3.00;;
66012;SDS011;52783;50.502;8.190;2024-02-26T09:43:44;5.47;;;3.40;;
66012;SDS011;52783;50.502;8.190;2024-02-26T09:46:11;4.68;;;2.97;;
66012;SDS011;52783;50.502;8.190;2024-02-26T09:48:37;7.25;;;3.35;;
66012;SDS011;52783;50.502;8.190;2024-02-26T09:51:03;4.40;;;3.00;;
66012;SDS011;52783;50.502;8.190;2024-02-26T09:53:30;5.20;;;3.28;;
66012;SDS011;52783;50.502;8.190;2024-02-26T09:55:57;5.78;;;3.47;;
66012;SDS011;52783;50.502;8.190;2024-02-26T09:58:23;4.60;;;3.20;;
66012;SDS011;52783;50.502;8.190;2024-02-26T10:00:53;8.32;;;2.95;;
66012;SDS011;52783;50.502;8.190;2024-02-26T10:03:24;4.50;;;2.95;;
66012;SDS011;52783;50.502;8.190;2024-02-26T10:05:53;4.60;;;3.25;;
66012;SDS011;52783;50.502;8.190;2024-02-26T10:08:20;3.88;;;3.13;;
66012;SDS011;52783;50.502;8.190;2024-02-26T10:10:47;9.80;;;3.47;;
66012;SDS011;52783;50.502;8.190;2024-02-26T10:13:13;6.85;;;3.60;;
66012;SDS011;52783;50.502;8.190;2024-02-26T10:15:38;4.90;;;3.33;;
66012;SDS011;52783;50.502;8.190;2024-02-26T10:18:07;5.22;;;3.30;;
66012;SDS011;52783;50.502;8.190;2024-02-26T10:20:33;5.50;;;3.42;;
66012;SDS011;52783;50.502;8.190;2024-02-26T10:22:58;6.15;;;3.80;;
66012;SDS011;52783;50.502;8.190;2024-02-26T10:25:27;5.57;;;3.90;;
66012;SDS011;52783;50.502;8.190;2024-02-26T10:27:53;5.28;;;3.22;;
66012;SDS011;52783;50.502;8.190;2024-02-26T10:30:22;4.93;;;3.40;;
66012;SDS011;52783;50.502;8.190;2024-02-26T10:32:50;6.68;;;4.20;;
66012;SDS011;52783;50.502;8.190;2024-02-26T10:35:17;5.28;;;3.40;;
66012;SDS011;52783;50.502;8.190;2024-02-26T10:37:43;7.20;;;3.47;;
66012;SDS011;52783;50.502;8.190;2024-02-26T10:40:12;4.70;;;3.63;;
66012;SDS011;52783;50.502;8.190;2024-02-26T10:42:41;5.47;;;2.88;;
66012;SDS011;52783;50.502;8.190;2024-02-26T10:45:08;7.22;;;3.63;;
66012;SDS011;52783;50.502;8.190;2024-02-26T10:47:37;8.52;;;3.83;;
66012;SDS011;52783;50.502;8.190;2024-02-26T10:50:05;11.55;;;3.75;;
66012;SDS011;52783;50.502;8.190;2024-02-26T10:52:35;7.18;;;3.88;;
66012;SDS011;52783;50.502;8.190;2024-02-26T10:55:02;5.90;;;3.55;;
66012;SDS011;52783;50.502;8.190;2024-02-26T10:57:29;7.57;;;4.00;;
66012;SDS011;52783;50.502;8.190;2024-02-26T10:59:59;7.70;;;4.13;;
66012;SDS011;52783;50.502;8.190;2024-02-26T11:02:28;4.63;;;3.47;;
66012;SDS011;52783;50.502;8.190;2024-02-26T11:04:56;4.85;;;3.55;;
66012;SDS011;52783;50.502;8.190;2024-02-26T11:07:23;6.22;;;3.83;;
66012;SDS011;52783;50.502;8.190;2024-02-26T11:09:50;6.13;;;3.97;;
66012;SDS011;52783;50.502;8.190;2024-02-26T11:12:17;6.32;;;3.35;;
66012;SDS011;52783;50.502;8.190;2024-02-26T11:14:44;4.78;;;3.50;;
66012;SDS011;52783;50.502;8.190;2024-02-26T11:17:11;4.47;;;3.33;;
66012;SDS011;52783;50.502;8.190;2024-02-26T11:19:40;5.57;;;3.72;;
66012;SDS011;52783;50.502;8.190;2024-02-26T11:22:06;5.47;;;3.50;;
66012;SDS011;52783;50.502;8.190;2024-02-26T11:24:32;6.75;;;3.90;;
66012;SDS011;52783;50.502;8.190;2024-02-26T11:26:58;5.20;;;3.53;;
66012;SDS011;52783;50.502;8.190;2024-02-26T11:29:28;7.20;;;4.55;;
66012;SDS011;52783;50.502;8.190;2024-02-26T11:31:59;6.15;;;3.80;;
66012;SDS011;52783;50.502;8.190;2024-02-26T11:34:26;7.90;;;4.38;;
66012;SDS011;52783;50.502;8.190;2024-02-26T11:36:53;9.38;;;3.92;;
66012;SDS011;52783;50.502;8.190;2024-02-26T11:39:19;8.18;;;4.10;;
66012;SDS011;52783;50.502;8.190;2024-02-26T11:41:45;6.45;;;4.40;;
66012;SDS011;52783;50.502;8.190;2024-02-26T11:44:11;8.40;;;4.10;;
66012;SDS011;52783;50.502;8.190;2024-02-26T11:46:40;10.07;;;4.18;;
66012;SDS011;52783;50.502;8.190;2024-02-26T11:51:56;7.32;;;4.05;;
66012;SDS011;52783;50.502;8.190;2024-02-26T11:57:28;3.97;;;3.42;;
66012;SDS011;52783;50.502;8.190;2024-02-26T11:59:55;5.70;;;3.72;;
66012;SDS011;52783;50.502;8.190;2024-02-26T12:02:42;6.57;;;4.22;;
66012;SDS011;52783;50.502;8.190;2024-02-26T12:05:14;7.38;;;3.75;;
66012;SDS011;52783;50.502;8.190;2024-02-26T12:07:44;7.03;;;3.85;;
66012;SDS011;52783;50.502;8.190;2024-02-26T12:10:21;9.65;;;4.05;;
66012;SDS011;52783;50.502;8.190;2024-02-26T12:12:55;8.07;;;4.00;;
66012;SDS011;52783;50.502;8.190;2024-02-26T12:15:30;8.00;;;4.45;;
66012;SDS011;52783;50.502;8.190;2024-02-26T12:20:23;5.78;;;3.60;;
66012;SDS011;52783;50.502;8.190;2024-02-26T12:22:49;7.78;;;4.22;;
66012;SDS011;52783;50.502;8.190;2024-02-26T12:25:17;5.90;;;4.18;;
66012;SDS011;52783;50.502;8.190;2024-02-26T12:27:46;5.15;;;4.00;;
66012;SDS011;52783;50.502;8.190;2024-02-26T12:30:11;6.57;;;4.20;;
66012;SDS011;52783;50.502;8.190;2024-02-26T12:32:37;7.18;;;4.05;;
66012;SDS011;52783;50.502;8.190;2024-02-26T12:35:03;5.63;;;4.10;;
66012;SDS011;52783;50.502;8.190;2024-02-26T12:37:31;7.63;;;4.13;;
66012;SDS011;52783;50.502;8.190;2024-02-26T12:39:57;7.97;;;3.85;;
66012;SDS011;52783;50.502;8.190;2024-02-26T12:42:23;6.43;;;3.65;;
66012;SDS011;52783;50.502;8.190;2024-02-26T12:44:49;6.20;;;3.60;;
66012;SDS011;52783;50.502;8.190;2024-02-26T12:47:14;7.40;;;3.55;;
66012;SDS011;52783;50.502;8.190;2024-02-26T12:49:42;7.35;;;4.03;;
66012;SDS011;52783;50.502;8.190;2024-02-26T12:52:08;6.63;;;3.90;;
66012;SDS011;52783;50.502;8.190;2024-02-26T12:54:34;4.65;;;3.47;;
66012;SDS011;52783;50.502;8.190;2024-02-26T12:57:00;9.27;;;3.83;;
66012;SDS011;52783;50.502;8.190;2024-02-26T12:59:28;5.70;;;3.65;;
66012;SDS011;52783;50.502;8.190;2024-02-26T13:01:55;6.57;;;3.40;;
66012;SDS011;52783;50.502;8.190;2024-02-26T13:04:20;5.95;;;3.70;;
66012;SDS011;52783;50.502;8.190;2024-02-26T13:06:46;7.15;;;3.78;;
66012;SDS011;52783;50.502;8.190;2024-02-26T13:09:14;5.93;;;3.40;;
66012;SDS011;52783;50.502;8.190;2024-02-26T13:11:40;6.90;;;3.53;;
66012;SDS011;52783;50.502;8.190;2024-02-26T13:14:06;4.72;;;3.47;;
66012;SDS011;52783;50.502;8.190;2024-02-26T13:16:31;6.82;;;3.80;;
66012;SDS011;52783;50.502;8.190;2024-02-26T13:19:07;4.97;;;3.40;;
66012;SDS011;52783;50.502;8.190;2024-02-26T13:21:34;7.50;;;3.67;;
66012;SDS011;52783;50.502;8.190;2024-02-26T13:24:00;9.82;;;3.65;;
66012;SDS011;52783;50.502;8.190;2024-02-26T13:26:25;6.20;;;3.67;;
66012;SDS011;52783;50.502;8.190;2024-02-26T13:29:00;10.00;;;4.50;;
66012;SDS011;52783;50.502;8.190;2024-02-26T13:31:28;8.38;;;3.35;;
66012;SDS011;52783;50.502;8.190;2024-02-26T13:33:53;6.43;;;4.00;;
66012;SDS011;52783;50.502;8.190;2024-02-26T13:36:21;6.65;;;3.83;;
66012;SDS011;52783;50.502;8.190;2024-02-26T13:38:53;4.75;;;3.20;;
66012;SDS011;52783;50.502;8.190;2024-02-26T13:41:20;6.55;;;3.38;;
66012;SDS011;52783;50.502;8.190;2024-02-26T13:43:46;7.35;;;3.00;;
66012;SDS011;52783;50.502;8.190;2024-02-26T13:46:12;6.65;;;3.30;;
66012;SDS011;52783;50.502;8.190;2024-02-26T13:48:40;6.43;;;3.60;;
66012;SDS011;52783;50.502;8.190;2024-02-26T13:51:06;8.10;;;4.05;;
66012;SDS011;52783;50.502;8.190;2024-02-26T13:53:32;6.13;;;4.15;;
66012;SDS011;52783;50.502;8.190;2024-02-26T13:55:57;9.20;;;4.70;;
66012;SDS011;52783;50.502;8.190;2024-02-26T13:58:25;8.95;;;4.30;;
66012;SDS011;52783;50.502;8.190;2024-02-26T14:00:54;9.20;;;3.72;;
66012;SDS011;52783;50.502;8.190;2024-02-26T14:03:20;10.43;;;4.10;;
66012;SDS011;52783;50.502;8.190;2024-02-26T14:05:46;6.57;;;3.00;;
66012;SDS011;52783;50.502;8.190;2024-02-26T14:08:11;5.47;;;3.90;;
66012;SDS011;52783;50.502;8.190;2024-02-26T14:10:37;15.25;;;4.03;;
66012;SDS011;52783;50.502;8.190;2024-02-26T14:13:03;4.43;;;3.20;;
66012;SDS011;52783;50.502;8.190;2024-02-26T14:15:29;9.30;;;3.85;;
66012;SDS011;52783;50.502;8.190;2024-02-26T14:17:54;5.40;;;3.70;;
66012;SDS011;52783;50.502;8.190;2024-02-26T14:20:24;4.32;;;3.30;;
66012;SDS011;52783;50.502;8.190;2024-02-26T14:22:50;5.63;;;3.13;;
66012;SDS011;52783;50.502;8.190;2024-02-26T14:25:19;7.55;;;3.80;;
66012;SDS011;52783;50.502;8.190;2024-02-26T14:27:49;6.28;;;3.30;;
66012;SDS011;52783;50.502;8.190;2024-02-26T14:30:14;5.78;;;3.25;;
66012;SDS011;52783;50.502;8.190;2024-02-26T14:32:40;4.82;;;3.20;;
66012;SDS011;52783;50.502;8.190;2024-02-26T14:35:09;4.85;;;3.40;;
66012;SDS011;52783;50.502;8.190;2024-02-26T14:37:35;10.18;;;5.85;;
66012;SDS011;52783;50.502;8.190;2024-02-26T14:40:01;5.70;;;3.50;;
66012;SDS011;52783;50.502;8.190;2024-02-26T14:42:30;9.27;;;3.20;;
66012;SDS011;52783;50.502;8.190;2024-02-26T14:44:56;6.75;;;3.10;;
66012;SDS011;52783;50.502;8.190;2024-02-26T14:47:21;4.78;;;3.40;;
66012;SDS011;52783;50.502;8.190;2024-02-26T14:49:47;6.57;;;3.67;;
66012;SDS011;52783;50.502;8.190;2024-02-26T14:52:13;6.55;;;3.55;;